Historyczne dane pomiarowe

Dodano dane terminowe – wersja testowa.

Dane z okresu 1951-2019

Wersja bazy: 1.34 [2019-03-16, lista zmian], aktualizacja planowana na 2019-04-15

Dane meteo z obszaru Polski uzyskane na podstawie danych udostępnionych przez Instytut Meteorologii i Gospodarki Wodnej – Państwowy Instytut Badawczy.

 

Wybierz Datę:    

       

TemperaturaWilgotnośćWiatrCiśnienieOpadyŚniegCzas trwania zjawisk
 Stacja t tx tn tng RH VA  wxwx mslp ppp RRR   cm mm wxwxwxwxwxwxwx
1994-10-10 1.0 3.3 -2.3 -7.9 90.0- 8.0 2.7---- 0.0------------
1994-10-09 -0.5 3.7 -7.0-10.4 86.8- 8.0 1.7---- 0.0------------
1994-10-08 -0.7 1.1 -1.9 -4.3 94.3- 0.0 0.3---- 0.0-- 3---------
1994-10-07 -1.6 2.7 -7.2-11.2 87.8- 5.3 3.7---- 4.6------------
1994-10-06 -0.9 2.5 -2.8 -8.3 90.0- 1.3 1.3---- 0.0-- 4---------
1994-10-05 0.1 2.1 -1.0 -4.3 91.5- 8.0 2.7---- 6.4-- 4---------
1994-10-04 1.6 9.6 -1.5 -3.3 81.5- 4.3 2.7---- 0.4------------
1994-10-03 10.1 12.7 5.0 0.8 91.5- 8.0 5.7---- 18.4------------
1994-10-02 8.9 11.0 5.2 2.5 92.3- 8.0 5.0---- 0.5------------
1994-10-01 10.2 11.5 8.0 5.0 90.3- 8.0 3.3---- 0.2------------
1994-09-30 7.9 14.0 1.5 -2.8 86.5- 4.7 4.0---- 0.0------------
1994-09-29 8.5 11.8 3.8 -1.0 89.5- 8.0 5.3---- 0.0------------
1994-09-28 8.1 11.5 5.5 0.2 89.3- 5.3 2.0---- 0.0------------
1994-09-27 12.1 15.8 9.2 8.4 86.3- 5.7 2.0---- 6.0------------
1994-09-26 11.5 19.8 2.2 -1.3 85.5- 2.3 3.3---- 3.9------------
1994-09-25 14.3 16.4 9.5 3.5 90.5- 8.0 3.0---- 0.0------------
1994-09-24 11.7 19.1 0.6 -4.9 86.0- 0.7 5.3---- 0.0------------
1994-09-23 3.8 15.0 -2.4 -6.4 83.8- 0.0 0.0---- 0.0------------
1994-09-22 6.8 11.6 3.3 -1.8 91.8- 8.0 1.0---- 0.0------------
1994-09-21 6.8 7.5 5.6 5.5 94.3- 8.0 1.0---- 5.2------------
1994-09-20 4.9 9.9 -2.5 -6.4 93.5- 5.3 3.0---- 3.4------------
1994-09-19 6.1 9.5 4.0 2.1 91.5- 3.3 2.3---- 0.0------------
1994-09-18 5.1 8.0 3.1 3.1 93.5- 4.0 3.7---- 5.4------------
1994-09-17 6.1 8.6 4.0 1.3 85.0- 8.0 5.7---- 0.0------------
1994-09-16 7.1 10.8 5.4 4.5 82.8- 4.3 17.0---- 0.0------------
1994-09-15 10.4 19.3 7.0 5.5 80.8- 6.7 14.7---- 1.8------------
1994-09-14 13.7 17.7 8.0 6.0 91.5- 7.7 3.3---- 3.3------------
1994-09-13 13.0 15.2 11.1 7.3 91.5- 8.0 2.3---- 1.8------------
1994-09-12 11.8 15.6 7.5 2.7 90.8- 8.0 4.3---- 3.2------------
1994-09-11 8.6 13.0 6.8 1.2 80.3- 8.0 3.3---- 4.4------------
1994-09-10 9.7 14.0 5.0 -0.3 81.8- 2.0 8.3---- 11.6------------
1994-09-09 11.0 18.2 7.3 3.1 85.8- 6.7 3.0---- 0.0------------
1994-09-08 14.2 19.8 11.1 1.2 89.5- 5.3 0.3---- 0.0------------
1994-09-07 12.3 13.7 6.1 6.6 85.5- 8.0 2.3---- 0.6------------
1994-09-06 10.3 15.5 6.1 3.1 84.3- 5.0 2.7---- 2.5------------
1994-09-05 11.4 15.2 8.2 5.0 87.8- 8.0 2.7---- 9.8------------
1994-09-04 9.3 16.0 4.4 0.2 80.5- 3.3 2.0---- 0.0------------
1994-09-03 10.8 13.6 6.1 3.9 90.3- 6.0 0.0---- 0.0------------
1994-09-02 12.1 19.4 5.9 2.7 89.0- 4.7 1.0---- 30.8------------
1994-09-01 15.1 18.8 7.8 3.9 92.0- 8.0 3.3---- 12.5------------
1994-08-31 10.5 18.2 4.5 1.6 84.5- 0.3 0.7---- 5.5------------
1994-08-30 9.1 19.0 2.4 1.2 81.8- 2.7 0.7---- 0.0------------
1994-08-29 9.0 15.4 2.2 0.3 89.8- 2.0 2.3---- 0.0------------
1994-08-28 12.4 18.4 8.0 6.5 82.8- 4.3 1.7---- 0.0------------
1994-08-27 10.1 18.5 3.1 0.5 87.0- 4.0 2.7---- 0.0------------
1994-08-26 11.3 13.5 10.0 9.7 94.8- 8.0 2.3---- 3.5------------
1994-08-25 12.3 18.0 5.0 0.7 92.3- 2.7 0.0---- 36.6------------
1994-08-24 12.8 17.9 6.3 2.6 94.5- 5.3 1.7---- 0.2------------
1994-08-23 11.9 18.5 5.0 1.2 88.3- 2.7 0.0---- 0.0------------
1994-08-22 11.8 18.8 4.2 0.7 79.3- 0.7 0.3---- 0.0------------
1994-08-21 11.8 17.8 4.4 0.2 74.5- 1.3 1.7---- 0.0------------
1994-08-20 10.7 19.4 8.3 3.4 85.8- 3.3 2.0---- 0.0------------
1994-08-19 8.2 11.4 6.7 5.5 92.0- 8.0 4.0---- 22.4------------
1994-08-18 8.7 14.4 6.3 1.2 92.5- 8.0 3.0---- 35.0------------
1994-08-17 12.6 19.9 1.5 -1.8 63.5- 0.7 2.3---- 5.6------------
1994-08-16 9.6 15.0 4.9 0.5 79.0- 5.3 0.7---- 0.0------------
1994-08-15 8.9 10.6 5.5 4.0 81.3- 4.0 4.7---- 0.0------------
1994-08-14 9.3 11.4 5.8 4.7 70.5- 4.7 3.3---- 0.0------------
1994-08-13 11.6 15.0 9.7 9.5 86.5- 8.0 3.3---- 0.0------------
1994-08-12 12.1 15.4 8.3 6.4 94.5- 8.0 1.7---- 5.8------------
439.0 ms

 

Źródłem pochodzenia danych jest Instytut Meteorologii i Gospodarki Wodnej – Państwowy Instytut Badawczy. Dane Instytutu Meteorologii i Gospodarki Wodnej – Państwowego Instytutu Badawczego zostały przetworzone.

Dane źródłowe można odnaleźć na stronie https://dane.imgw.pl